sensor_id;sensor_type;location;lat;lon;timestamp;P1;durP1;ratioP1;P2;durP2;ratioP2
29728;SDS011;20055;51.498;11.960;2023-07-20T00:01:49;9.50;;;3.83;;
29728;SDS011;20055;51.498;11.960;2023-07-20T00:04:15;7.20;;;4.22;;
29728;SDS011;20055;51.498;11.960;2023-07-20T00:06:42;5.97;;;3.10;;
29728;SDS011;20055;51.498;11.960;2023-07-20T00:09:08;7.68;;;3.70;;
29728;SDS011;20055;51.498;11.960;2023-07-20T00:11:35;13.88;;;4.28;;
29728;SDS011;20055;51.498;11.960;2023-07-20T00:14:04;12.25;;;4.18;;
29728;SDS011;20055;51.498;11.960;2023-07-20T00:16:31;13.10;;;4.50;;
29728;SDS011;20055;51.498;11.960;2023-07-20T00:18:57;10.45;;;4.80;;
29728;SDS011;20055;51.498;11.960;2023-07-20T00:21:24;10.63;;;4.50;;
29728;SDS011;20055;51.498;11.960;2023-07-20T00:23:50;7.25;;;3.72;;
29728;SDS011;20055;51.498;11.960;2023-07-20T00:26:16;6.20;;;3.60;;
29728;SDS011;20055;51.498;11.960;2023-07-20T00:28:44;6.22;;;3.55;;
29728;SDS011;20055;51.498;11.960;2023-07-20T00:31:10;7.40;;;3.70;;
29728;SDS011;20055;51.498;11.960;2023-07-20T00:33:36;7.80;;;4.00;;
29728;SDS011;20055;51.498;11.960;2023-07-20T00:36:02;9.18;;;3.42;;
29728;SDS011;20055;51.498;11.960;2023-07-20T00:38:29;6.45;;;3.53;;
29728;SDS011;20055;51.498;11.960;2023-07-20T00:40:55;8.40;;;3.65;;
29728;SDS011;20055;51.498;11.960;2023-07-20T00:43:21;9.57;;;3.47;;
29728;SDS011;20055;51.498;11.960;2023-07-20T00:45:48;5.53;;;3.53;;
29728;SDS011;20055;51.498;11.960;2023-07-20T00:48:14;8.00;;;3.13;;
29728;SDS011;20055;51.498;11.960;2023-07-20T00:50:43;8.15;;;3.75;;
29728;SDS011;20055;51.498;11.960;2023-07-20T00:53:11;7.18;;;3.42;;
29728;SDS011;20055;51.498;11.960;2023-07-20T00:55:37;13.20;;;3.78;;
29728;SDS011;20055;51.498;11.960;2023-07-20T00:58:03;11.45;;;4.22;;
29728;SDS011;20055;51.498;11.960;2023-07-20T01:00:30;6.88;;;3.53;;
29728;SDS011;20055;51.498;11.960;2023-07-20T01:02:58;6.60;;;3.22;;
29728;SDS011;20055;51.498;11.960;2023-07-20T01:05:26;6.82;;;3.72;;
29728;SDS011;20055;51.498;11.960;2023-07-20T01:08:49;7.10;;;3.15;;
29728;SDS011;20055;51.498;11.960;2023-07-20T01:11:33;7.28;;;3.38;;
29728;SDS011;20055;51.498;11.960;2023-07-20T01:14:37;9.77;;;3.63;;
29728;SDS011;20055;51.498;11.960;2023-07-20T01:17:05;11.23;;;3.25;;
29728;SDS011;20055;51.498;11.960;2023-07-20T01:19:31;11.32;;;3.40;;
29728;SDS011;20055;51.498;11.960;2023-07-20T01:32:39;9.10;;;3.63;;
29728;SDS011;20055;51.498;11.960;2023-07-20T01:35:08;7.05;;;3.50;;
29728;SDS011;20055;51.498;11.960;2023-07-20T01:37:40;7.75;;;3.65;;
29728;SDS011;20055;51.498;11.960;2023-07-20T01:40:09;11.52;;;3.22;;
29728;SDS011;20055;51.498;11.960;2023-07-20T01:42:36;12.20;;;3.70;;
29728;SDS011;20055;51.498;11.960;2023-07-20T01:45:02;7.18;;;3.58;;
29728;SDS011;20055;51.498;11.960;2023-07-20T01:47:30;8.52;;;4.03;;
29728;SDS011;20055;51.498;11.960;2023-07-20T01:49:56;14.13;;;4.32;;
29728;SDS011;20055;51.498;11.960;2023-07-20T01:52:22;5.75;;;3.50;;
29728;SDS011;20055;51.498;11.960;2023-07-20T01:54:50;7.28;;;3.10;;
29728;SDS011;20055;51.498;11.960;2023-07-20T01:57:16;11.40;;;3.97;;
29728;SDS011;20055;51.498;11.960;2023-07-20T01:59:43;8.02;;;3.60;;
29728;SDS011;20055;51.498;11.960;2023-07-20T02:02:12;8.05;;;3.88;;
29728;SDS011;20055;51.498;11.960;2023-07-20T02:04:38;8.23;;;3.70;;
29728;SDS011;20055;51.498;11.960;2023-07-20T02:07:05;7.68;;;3.92;;
29728;SDS011;20055;51.498;11.960;2023-07-20T02:09:32;10.00;;;3.95;;
29728;SDS011;20055;51.498;11.960;2023-07-20T02:11:58;7.40;;;3.58;;
29728;SDS011;20055;51.498;11.960;2023-07-20T02:14:24;9.88;;;4.00;;
29728;SDS011;20055;51.498;11.960;2023-07-20T02:16:50;10.48;;;4.13;;
29728;SDS011;20055;51.498;11.960;2023-07-20T02:19:20;6.88;;;3.45;;
29728;SDS011;20055;51.498;11.960;2023-07-20T02:21:47;9.90;;;3.78;;
29728;SDS011;20055;51.498;11.960;2023-07-20T02:24:13;9.05;;;4.10;;
29728;SDS011;20055;51.498;11.960;2023-07-20T02:26:39;15.20;;;4.30;;
29728;SDS011;20055;51.498;11.960;2023-07-20T02:29:05;10.85;;;4.32;;
29728;SDS011;20055;51.498;11.960;2023-07-20T02:31:33;8.38;;;3.50;;
29728;SDS011;20055;51.498;11.960;2023-07-20T02:34:00;7.75;;;3.45;;
29728;SDS011;20055;51.498;11.960;2023-07-20T02:36:26;14.48;;;3.92;;
29728;SDS011;20055;51.498;11.960;2023-07-20T02:38:52;13.95;;;3.90;;
29728;SDS011;20055;51.498;11.960;2023-07-20T02:41:19;7.93;;;4.18;;
29728;SDS011;20055;51.498;11.960;2023-07-20T02:43:45;12.77;;;4.28;;
29728;SDS011;20055;51.498;11.960;2023-07-20T02:46:12;7.68;;;4.10;;
29728;SDS011;20055;51.498;11.960;2023-07-20T02:48:38;11.82;;;4.30;;
29728;SDS011;20055;51.498;11.960;2023-07-20T02:51:05;14.25;;;4.63;;
29728;SDS011;20055;51.498;11.960;2023-07-20T02:53:33;14.77;;;4.88;;
29728;SDS011;20055;51.498;11.960;2023-07-20T02:55:59;11.20;;;4.32;;
29728;SDS011;20055;51.498;11.960;2023-07-20T02:58:26;11.60;;;4.18;;
29728;SDS011;20055;51.498;11.960;2023-07-20T03:00:52;16.58;;;5.75;;
29728;SDS011;20055;51.498;11.960;2023-07-20T03:03:18;13.20;;;4.43;;
29728;SDS011;20055;51.498;11.960;2023-07-20T03:05:45;10.32;;;4.13;;
29728;SDS011;20055;51.498;11.960;2023-07-20T03:08:11;16.65;;;5.00;;
29728;SDS011;20055;51.498;11.960;2023-07-20T03:10:38;21.38;;;5.25;;
29728;SDS011;20055;51.498;11.960;2023-07-20T03:13:08;16.90;;;5.38;;
29728;SDS011;20055;51.498;11.960;2023-07-20T03:15:34;21.10;;;6.10;;
29728;SDS011;20055;51.498;11.960;2023-07-20T03:18:00;12.55;;;5.00;;
29728;SDS011;20055;51.498;11.960;2023-07-20T03:20:28;15.88;;;5.35;;
29728;SDS011;20055;51.498;11.960;2023-07-20T03:22:54;9.43;;;5.40;;
29728;SDS011;20055;51.498;11.960;2023-07-20T03:25:21;9.68;;;5.55;;
29728;SDS011;20055;51.498;11.960;2023-07-20T03:27:48;16.42;;;5.50;;
29728;SDS011;20055;51.498;11.960;2023-07-20T03:30:14;12.48;;;5.93;;
29728;SDS011;20055;51.498;11.960;2023-07-20T03:32:40;10.48;;;5.75;;
29728;SDS011;20055;51.498;11.960;2023-07-20T03:35:07;11.63;;;5.68;;
29728;SDS011;20055;51.498;11.960;2023-07-20T03:37:34;17.05;;;5.60;;
29728;SDS011;20055;51.498;11.960;2023-07-20T03:40:01;14.82;;;6.13;;
29728;SDS011;20055;51.498;11.960;2023-07-20T03:42:33;12.18;;;5.20;;
29728;SDS011;20055;51.498;11.960;2023-07-20T03:44:59;13.38;;;5.55;;
29728;SDS011;20055;51.498;11.960;2023-07-20T03:47:26;11.23;;;5.55;;
29728;SDS011;20055;51.498;11.960;2023-07-20T03:49:52;12.95;;;5.53;;
29728;SDS011;20055;51.498;11.960;2023-07-20T03:52:18;16.23;;;5.72;;
29728;SDS011;20055;51.498;11.960;2023-07-20T03:54:44;13.15;;;5.68;;
29728;SDS011;20055;51.498;11.960;2023-07-20T03:57:11;10.40;;;6.82;;
29728;SDS011;20055;51.498;11.960;2023-07-20T03:59:38;18.17;;;5.57;;
29728;SDS011;20055;51.498;11.960;2023-07-20T04:02:05;12.23;;;5.53;;
29728;SDS011;20055;51.498;11.960;2023-07-20T04:04:31;16.88;;;5.78;;
29728;SDS011;20055;51.498;11.960;2023-07-20T04:06:57;15.40;;;5.90;;
29728;SDS011;20055;51.498;11.960;2023-07-20T04:09:23;11.27;;;5.32;;
29728;SDS011;20055;51.498;11.960;2023-07-20T04:11:50;14.75;;;5.38;;
29728;SDS011;20055;51.498;11.960;2023-07-20T04:14:16;16.17;;;5.43;;
29728;SDS011;20055;51.498;11.960;2023-07-20T04:16:42;12.63;;;5.53;;
29728;SDS011;20055;51.498;11.960;2023-07-20T04:19:08;12.60;;;5.43;;
29728;SDS011;20055;51.498;11.960;2023-07-20T04:21:39;21.95;;;5.97;;
29728;SDS011;20055;51.498;11.960;2023-07-20T04:24:07;12.23;;;5.10;;
29728;SDS011;20055;51.498;11.960;2023-07-20T04:26:33;13.77;;;5.78;;
29728;SDS011;20055;51.498;11.960;2023-07-20T04:28:59;13.10;;;5.30;;
29728;SDS011;20055;51.498;11.960;2023-07-20T04:31:35;12.32;;;5.50;;
29728;SDS011;20055;51.498;11.960;2023-07-20T04:34:03;14.50;;;5.72;;
29728;SDS011;20055;51.498;11.960;2023-07-20T04:36:29;20.25;;;5.68;;
29728;SDS011;20055;51.498;11.960;2023-07-20T04:38:56;9.25;;;4.60;;
29728;SDS011;20055;51.498;11.960;2023-07-20T04:41:22;21.83;;;5.85;;
29728;SDS011;20055;51.498;11.960;2023-07-20T04:43:52;11.13;;;5.15;;
29728;SDS011;20055;51.498;11.960;2023-07-20T04:46:25;19.30;;;4.53;;
29728;SDS011;20055;51.498;11.960;2023-07-20T04:48:51;8.48;;;4.22;;
29728;SDS011;20055;51.498;11.960;2023-07-20T04:51:18;15.95;;;4.68;;
29728;SDS011;20055;51.498;11.960;2023-07-20T04:53:48;16.50;;;5.35;;
29728;SDS011;20055;51.498;11.960;2023-07-20T04:56:15;15.90;;;4.57;;
29728;SDS011;20055;51.498;11.960;2023-07-20T04:58:42;9.80;;;4.43;;
29728;SDS011;20055;51.498;11.960;2023-07-20T05:01:08;13.40;;;4.90;;
29728;SDS011;20055;51.498;11.960;2023-07-20T05:03:36;16.15;;;4.43;;
29728;SDS011;20055;51.498;11.960;2023-07-20T05:06:03;12.32;;;4.55;;
29728;SDS011;20055;51.498;11.960;2023-07-20T05:08:29;11.13;;;4.35;;
29728;SDS011;20055;51.498;11.960;2023-07-20T05:10:55;14.90;;;5.07;;
29728;SDS011;20055;51.498;11.960;2023-07-20T05:13:21;16.27;;;4.60;;
29728;SDS011;20055;51.498;11.960;2023-07-20T05:15:52;25.50;;;5.10;;
29728;SDS011;20055;51.498;11.960;2023-07-20T05:18:19;12.93;;;4.53;;
29728;SDS011;20055;51.498;11.960;2023-07-20T05:20:47;18.25;;;4.85;;
29728;SDS011;20055;51.498;11.960;2023-07-20T05:23:15;16.90;;;5.13;;
29728;SDS011;20055;51.498;11.960;2023-07-20T05:25:43;18.35;;;5.10;;
29728;SDS011;20055;51.498;11.960;2023-07-20T05:28:09;14.52;;;4.57;;
29728;SDS011;20055;51.498;11.960;2023-07-20T05:30:35;10.35;;;4.18;;
29728;SDS011;20055;51.498;11.960;2023-07-20T05:33:01;18.67;;;4.78;;
29728;SDS011;20055;51.498;11.960;2023-07-20T05:35:28;16.10;;;6.18;;
29728;SDS011;20055;51.498;11.960;2023-07-20T05:41:14;12.98;;;3.20;;
29728;SDS011;20055;51.498;11.960;2023-07-20T05:43:41;10.20;;;2.65;;
29728;SDS011;20055;51.498;11.960;2023-07-20T05:46:09;9.55;;;2.40;;
29728;SDS011;20055;51.498;11.960;2023-07-20T05:48:35;16.45;;;3.33;;
29728;SDS011;20055;51.498;11.960;2023-07-20T05:51:02;12.10;;;2.92;;
29728;SDS011;20055;51.498;11.960;2023-07-20T05:53:28;12.25;;;3.30;;
29728;SDS011;20055;51.498;11.960;2023-07-20T05:55:56;10.93;;;2.58;;
29728;SDS011;20055;51.498;11.960;2023-07-20T05:58:22;14.68;;;3.25;;
29728;SDS011;20055;51.498;11.960;2023-07-20T06:00:53;14.05;;;4.07;;
29728;SDS011;20055;51.498;11.960;2023-07-20T06:06:15;17.58;;;2.88;;
29728;SDS011;20055;51.498;11.960;2023-07-20T06:08:41;9.75;;;2.83;;
29728;SDS011;20055;51.498;11.960;2023-07-20T06:11:09;11.77;;;3.05;;
29728;SDS011;20055;51.498;11.960;2023-07-20T06:13:36;12.18;;;2.90;;
29728;SDS011;20055;51.498;11.960;2023-07-20T06:16:04;15.77;;;4.65;;
29728;SDS011;20055;51.498;11.960;2023-07-20T06:21:00;14.80;;;3.40;;
29728;SDS011;20055;51.498;11.960;2023-07-20T06:23:26;8.20;;;3.28;;
29728;SDS011;20055;51.498;11.960;2023-07-20T06:25:53;11.32;;;3.17;;
29728;SDS011;20055;51.498;11.960;2023-07-20T06:28:19;15.98;;;3.13;;
29728;SDS011;20055;51.498;11.960;2023-07-20T06:30:46;9.93;;;3.13;;
29728;SDS011;20055;51.498;11.960;2023-07-20T06:33:12;18.05;;;2.85;;
29728;SDS011;20055;51.498;11.960;2023-07-20T06:35:41;13.05;;;2.83;;
29728;SDS011;20055;51.498;11.960;2023-07-20T06:38:08;8.65;;;2.95;;
29728;SDS011;20055;51.498;11.960;2023-07-20T06:40:35;12.25;;;3.00;;
29728;SDS011;20055;51.498;11.960;2023-07-20T06:43:02;12.13;;;2.72;;
29728;SDS011;20055;51.498;11.960;2023-07-20T06:45:30;9.75;;;2.70;;
29728;SDS011;20055;51.498;11.960;2023-07-20T06:47:56;9.40;;;2.80;;
29728;SDS011;20055;51.498;11.960;2023-07-20T06:50:24;10.60;;;2.95;;
29728;SDS011;20055;51.498;11.960;2023-07-20T06:52:50;13.02;;;3.00;;
29728;SDS011;20055;51.498;11.960;2023-07-20T06:55:16;13.00;;;2.83;;
29728;SDS011;20055;51.498;11.960;2023-07-20T06:57:43;9.50;;;3.13;;
29728;SDS011;20055;51.498;11.960;2023-07-20T07:00:10;12.88;;;3.15;;
29728;SDS011;20055;51.498;11.960;2023-07-20T07:02:38;11.55;;;3.30;;
29728;SDS011;20055;51.498;11.960;2023-07-20T07:05:05;14.98;;;4.07;;
29728;SDS011;20055;51.498;11.960;2023-07-20T07:07:42;9.05;;;3.78;;
29728;SDS011;20055;51.498;11.960;2023-07-20T07:10:08;13.05;;;3.88;;
29728;SDS011;20055;51.498;11.960;2023-07-20T07:12:40;11.15;;;4.30;;
29728;SDS011;20055;51.498;11.960;2023-07-20T07:15:19;11.95;;;3.65;;
29728;SDS011;20055;51.498;11.960;2023-07-20T07:20:39;12.73;;;3.95;;
29728;SDS011;20055;51.498;11.960;2023-07-20T07:26:03;14.30;;;3.28;;
29728;SDS011;20055;51.498;11.960;2023-07-20T07:31:21;19.65;;;3.88;;
29728;SDS011;20055;51.498;11.960;2023-07-20T07:36:40;10.73;;;4.15;;
29728;SDS011;20055;51.498;11.960;2023-07-20T07:39:06;10.88;;;3.90;;
29728;SDS011;20055;51.498;11.960;2023-07-20T07:41:32;11.88;;;4.78;;
29728;SDS011;20055;51.498;11.960;2023-07-20T07:43:59;7.28;;;4.80;;
29728;SDS011;20055;51.498;11.960;2023-07-20T07:46:26;13.02;;;4.63;;
29728;SDS011;20055;51.498;11.960;2023-07-20T07:48:52;8.63;;;4.97;;
29728;SDS011;20055;51.498;11.960;2023-07-20T07:51:19;9.30;;;5.47;;
29728;SDS011;20055;51.498;11.960;2023-07-20T07:53:45;10.73;;;4.40;;
29728;SDS011;20055;51.498;11.960;2023-07-20T07:56:15;11.10;;;5.97;;
29728;SDS011;20055;51.498;11.960;2023-07-20T07:58:42;10.88;;;4.60;;
29728;SDS011;20055;51.498;11.960;2023-07-20T08:01:09;13.20;;;4.93;;
29728;SDS011;20055;51.498;11.960;2023-07-20T08:03:35;12.02;;;4.90;;
29728;SDS011;20055;51.498;11.960;2023-07-20T08:06:02;8.35;;;4.78;;
29728;SDS011;20055;51.498;11.960;2023-07-20T08:08:34;8.02;;;4.47;;
29728;SDS011;20055;51.498;11.960;2023-07-20T08:11:00;11.60;;;5.20;;
29728;SDS011;20055;51.498;11.960;2023-07-20T08:13:28;13.75;;;5.57;;
29728;SDS011;20055;51.498;11.960;2023-07-20T08:15:54;6.00;;;3.65;;
29728;SDS011;20055;51.498;11.960;2023-07-20T08:18:20;7.68;;;3.60;;
29728;SDS011;20055;51.498;11.960;2023-07-20T08:20:47;8.13;;;2.70;;
29728;SDS011;20055;51.498;11.960;2023-07-20T08:23:15;5.60;;;2.70;;
29728;SDS011;20055;51.498;11.960;2023-07-20T08:25:41;7.63;;;4.63;;
29728;SDS011;20055;51.498;11.960;2023-07-20T08:28:10;12.55;;;4.85;;
29728;SDS011;20055;51.498;11.960;2023-07-20T08:30:43;10.52;;;4.57;;
29728;SDS011;20055;51.498;11.960;2023-07-20T08:33:14;12.52;;;5.53;;
29728;SDS011;20055;51.498;11.960;2023-07-20T08:35:41;10.10;;;5.22;;
29728;SDS011;20055;51.498;11.960;2023-07-20T08:38:08;6.88;;;4.15;;
29728;SDS011;20055;51.498;11.960;2023-07-20T08:40:41;6.07;;;4.03;;
29728;SDS011;20055;51.498;11.960;2023-07-20T08:43:12;8.32;;;5.00;;
29728;SDS011;20055;51.498;11.960;2023-07-20T08:45:40;9.60;;;4.45;;
29728;SDS011;20055;51.498;11.960;2023-07-20T08:48:07;13.70;;;5.63;;
29728;SDS011;20055;51.498;11.960;2023-07-20T08:50:34;9.90;;;4.47;;
29728;SDS011;20055;51.498;11.960;2023-07-20T08:53:01;12.32;;;4.18;;
29728;SDS011;20055;51.498;11.960;2023-07-20T08:55:28;13.13;;;4.55;;
29728;SDS011;20055;51.498;11.960;2023-07-20T08:57:56;8.15;;;4.40;;
29728;SDS011;20055;51.498;11.960;2023-07-20T09:00:26;10.77;;;4.72;;
29728;SDS011;20055;51.498;11.960;2023-07-20T09:02:56;9.40;;;4.25;;
29728;SDS011;20055;51.498;11.960;2023-07-20T09:05:26;6.13;;;4.93;;
29728;SDS011;20055;51.498;11.960;2023-07-20T09:07:52;8.07;;;5.30;;
29728;SDS011;20055;51.498;11.960;2023-07-20T09:10:22;13.32;;;6.25;;
29728;SDS011;20055;51.498;11.960;2023-07-20T09:12:49;9.45;;;5.68;;
29728;SDS011;20055;51.498;11.960;2023-07-20T09:15:16;23.45;;;7.78;;
29728;SDS011;20055;51.498;11.960;2023-07-20T09:17:49;14.65;;;8.13;;
29728;SDS011;20055;51.498;11.960;2023-07-20T09:20:17;17.55;;;8.27;;
29728;SDS011;20055;51.498;11.960;2023-07-20T09:22:45;21.25;;;9.95;;
29728;SDS011;20055;51.498;11.960;2023-07-20T09:25:15;16.70;;;10.35;;
29728;SDS011;20055;51.498;11.960;2023-07-20T09:27:45;20.88;;;11.15;;
29728;SDS011;20055;51.498;11.960;2023-07-20T09:30:13;33.47;;;11.10;;
29728;SDS011;20055;51.498;11.960;2023-07-20T09:32:43;22.15;;;14.15;;
29728;SDS011;20055;51.498;11.960;2023-07-20T09:35:16;24.90;;;15.32;;
29728;SDS011;20055;51.498;11.960;2023-07-20T09:38:00;26.38;;;15.93;;
29728;SDS011;20055;51.498;11.960;2023-07-20T09:40:28;20.75;;;13.27;;
29728;SDS011;20055;51.498;11.960;2023-07-20T09:42:55;10.75;;;9.18;;
29728;SDS011;20055;51.498;11.960;2023-07-20T09:45:39;10.30;;;8.25;;
29728;SDS011;20055;51.498;11.960;2023-07-20T09:48:09;13.00;;;7.72;;
29728;SDS011;20055;51.498;11.960;2023-07-20T09:50:40;11.82;;;8.77;;
29728;SDS011;20055;51.498;11.960;2023-07-20T09:53:13;12.55;;;9.38;;
29728;SDS011;20055;51.498;11.960;2023-07-20T09:55:41;18.38;;;8.85;;
29728;SDS011;20055;51.498;11.960;2023-07-20T09:58:08;17.83;;;9.02;;
29728;SDS011;20055;51.498;11.960;2023-07-20T10:00:36;13.30;;;9.23;;
29728;SDS011;20055;51.498;11.960;2023-07-20T10:03:04;10.80;;;7.18;;
29728;SDS011;20055;51.498;11.960;2023-07-20T10:05:32;8.57;;;6.28;;
29728;SDS011;20055;51.498;11.960;2023-07-20T10:08:01;11.00;;;6.78;;
29728;SDS011;20055;51.498;11.960;2023-07-20T10:10:31;9.82;;;6.50;;
29728;SDS011;20055;51.498;11.960;2023-07-20T10:13:00;17.90;;;7.53;;
29728;SDS011;20055;51.498;11.960;2023-07-20T10:15:29;14.27;;;7.60;;
29728;SDS011;20055;51.498;11.960;2023-07-20T10:18:12;11.52;;;5.93;;
29728;SDS011;20055;51.498;11.960;2023-07-20T10:20:45;9.40;;;6.35;;
29728;SDS011;20055;51.498;11.960;2023-07-20T10:23:14;10.52;;;6.30;;
29728;SDS011;20055;51.498;11.960;2023-07-20T10:25:41;9.30;;;5.75;;
29728;SDS011;20055;51.498;11.960;2023-07-20T10:28:10;7.65;;;6.03;;
29728;SDS011;20055;51.498;11.960;2023-07-20T10:30:38;12.30;;;6.40;;
29728;SDS011;20055;51.498;11.960;2023-07-20T10:33:06;8.70;;;6.97;;
29728;SDS011;20055;51.498;11.960;2023-07-20T10:38:40;11.48;;;6.45;;
29728;SDS011;20055;51.498;11.960;2023-07-20T10:41:18;8.93;;;6.28;;
29728;SDS011;20055;51.498;11.960;2023-07-20T10:43:48;7.32;;;5.25;;
29728;SDS011;20055;51.498;11.960;2023-07-20T10:46:15;6.78;;;6.00;;
29728;SDS011;20055;51.498;11.960;2023-07-20T10:49:05;8.70;;;5.20;;
29728;SDS011;20055;51.498;11.960;2023-07-20T10:51:39;4.75;;;4.00;;
29728;SDS011;20055;51.498;11.960;2023-07-20T10:54:09;3.25;;;2.80;;
29728;SDS011;20055;51.498;11.960;2023-07-20T10:56:56;3.05;;;2.28;;
29728;SDS011;20055;51.498;11.960;2023-07-20T11:01:49;4.50;;;2.45;;
29728;SDS011;20055;51.498;11.960;2023-07-20T11:04:37;3.42;;;2.70;;
29728;SDS011;20055;51.498;11.960;2023-07-20T11:07:05;4.25;;;2.10;;
29728;SDS011;20055;51.498;11.960;2023-07-20T11:09:35;2.47;;;1.83;;
29728;SDS011;20055;51.498;11.960;2023-07-20T11:12:10;3.50;;;1.33;;
29728;SDS011;20055;51.498;11.960;2023-07-20T11:14:55;2.95;;;1.02;;
29728;SDS011;20055;51.498;11.960;2023-07-20T11:17:32;1.95;;;0.70;;
29728;SDS011;20055;51.498;11.960;2023-07-20T11:19:59;1.48;;;0.90;;
29728;SDS011;20055;51.498;11.960;2023-07-20T11:22:30;0.77;;;0.73;;
29728;SDS011;20055;51.498;11.960;2023-07-20T11:24:57;1.95;;;0.90;;
29728;SDS011;20055;51.498;11.960;2023-07-20T11:27:24;0.90;;;0.65;;
29728;SDS011;20055;51.498;11.960;2023-07-20T11:29:50;1.38;;;0.70;;
29728;SDS011;20055;51.498;11.960;2023-07-20T11:32:20;4.30;;;0.90;;
29728;SDS011;20055;51.498;11.960;2023-07-20T11:34:47;3.70;;;1.00;;
29728;SDS011;20055;51.498;11.960;2023-07-20T11:37:14;3.45;;;1.00;;
29728;SDS011;20055;51.498;11.960;2023-07-20T11:39:40;1.00;;;0.88;;
29728;SDS011;20055;51.498;11.960;2023-07-20T11:42:08;1.15;;;0.80;;
29728;SDS011;20055;51.498;11.960;2023-07-20T11:44:34;1.20;;;1.10;;
29728;SDS011;20055;51.498;11.960;2023-07-20T11:47:08;3.55;;;1.30;;
29728;SDS011;20055;51.498;11.960;2023-07-20T11:49:36;1.95;;;1.15;;
29728;SDS011;20055;51.498;11.960;2023-07-20T11:52:10;2.47;;;1.70;;
29728;SDS011;20055;51.498;11.960;2023-07-20T11:54:41;2.88;;;1.40;;
29728;SDS011;20055;51.498;11.960;2023-07-20T11:57:17;2.40;;;1.83;;
29728;SDS011;20055;51.498;11.960;2023-07-20T11:59:58;2.45;;;1.70;;
29728;SDS011;20055;51.498;11.960;2023-07-20T12:02:32;5.20;;;2.40;;
29728;SDS011;20055;51.498;11.960;2023-07-20T12:04:58;3.25;;;2.92;;
29728;SDS011;20055;51.498;11.960;2023-07-20T12:07:25;4.40;;;2.78;;
29728;SDS011;20055;51.498;11.960;2023-07-20T12:12:33;4.70;;;2.55;;
29728;SDS011;20055;51.498;11.960;2023-07-20T12:17:49;5.82;;;2.50;;
29728;SDS011;20055;51.498;11.960;2023-07-20T12:20:29;2.30;;;2.10;;
29728;SDS011;20055;51.498;11.960;2023-07-20T12:23:02;6.28;;;2.78;;
29728;SDS011;20055;51.498;11.960;2023-07-20T12:25:43;4.57;;;3.10;;
29728;SDS011;20055;51.498;11.960;2023-07-20T12:30:38;2.90;;;2.55;;
29728;SDS011;20055;51.498;11.960;2023-07-20T12:33:06;7.30;;;2.60;;
29728;SDS011;20055;51.498;11.960;2023-07-20T12:35:32;5.30;;;3.88;;
29728;SDS011;20055;51.498;11.960;2023-07-20T12:37:59;8.57;;;3.92;;
29728;SDS011;20055;51.498;11.960;2023-07-20T12:40:26;6.97;;;4.18;;
29728;SDS011;20055;51.498;11.960;2023-07-20T12:42:52;4.93;;;4.32;;
29728;SDS011;20055;51.498;11.960;2023-07-20T12:45:19;7.78;;;5.03;;
29728;SDS011;20055;51.498;11.960;2023-07-20T12:47:45;4.18;;;3.65;;
29728;SDS011;20055;51.498;11.960;2023-07-20T12:50:11;3.60;;;3.30;;
29728;SDS011;20055;51.498;11.960;2023-07-20T12:52:39;5.95;;;4.70;;
29728;SDS011;20055;51.498;11.960;2023-07-20T12:55:06;4.00;;;3.60;;
29728;SDS011;20055;51.498;11.960;2023-07-20T12:57:34;4.53;;;3.85;;
29728;SDS011;20055;51.498;11.960;2023-07-20T13:00:04;4.30;;;3.90;;
29728;SDS011;20055;51.498;11.960;2023-07-20T13:02:33;6.88;;;4.45;;
29728;SDS011;20055;51.498;11.960;2023-07-20T13:05:00;4.70;;;3.67;;
29728;SDS011;20055;51.498;11.960;2023-07-20T13:07:31;8.13;;;4.53;;
29728;SDS011;20055;51.498;11.960;2023-07-20T13:10:02;4.63;;;4.22;;
29728;SDS011;20055;51.498;11.960;2023-07-20T13:12:31;4.28;;;3.85;;
29728;SDS011;20055;51.498;11.960;2023-07-20T13:14:58;3.78;;;3.20;;
29728;SDS011;20055;51.498;11.960;2023-07-20T13:17:26;3.22;;;2.90;;
29728;SDS011;20055;51.498;11.960;2023-07-20T13:19:54;5.70;;;3.40;;
29728;SDS011;20055;51.498;11.960;2023-07-20T13:22:20;3.80;;;2.67;;
29728;SDS011;20055;51.498;11.960;2023-07-20T13:24:46;3.20;;;2.25;;
29728;SDS011;20055;51.498;11.960;2023-07-20T13:27:16;4.68;;;2.30;;
29728;SDS011;20055;51.498;11.960;2023-07-20T13:29:43;3.80;;;2.00;;
29728;SDS011;20055;51.498;11.960;2023-07-20T13:32:14;3.58;;;2.00;;
29728;SDS011;20055;51.498;11.960;2023-07-20T13:34:41;5.10;;;2.10;;
29728;SDS011;20055;51.498;11.960;2023-07-20T13:37:08;2.33;;;2.08;;
29728;SDS011;20055;51.498;11.960;2023-07-20T13:39:35;2.38;;;1.60;;
29728;SDS011;20055;51.498;11.960;2023-07-20T13:42:01;2.75;;;1.48;;
29728;SDS011;20055;51.498;11.960;2023-07-20T13:44:31;3.90;;;1.80;;
29728;SDS011;20055;51.498;11.960;2023-07-20T13:46:57;2.58;;;1.65;;
29728;SDS011;20055;51.498;11.960;2023-07-20T13:49:24;2.08;;;1.52;;
29728;SDS011;20055;51.498;11.960;2023-07-20T13:51:50;2.55;;;1.40;;
29728;SDS011;20055;51.498;11.960;2023-07-20T13:54:17;2.65;;;1.45;;
29728;SDS011;20055;51.498;11.960;2023-07-20T13:56:43;2.70;;;1.42;;
29728;SDS011;20055;51.498;11.960;2023-07-20T13:59:09;3.17;;;1.35;;
29728;SDS011;20055;51.498;11.960;2023-07-20T14:01:38;1.67;;;1.10;;
29728;SDS011;20055;51.498;11.960;2023-07-20T14:04:04;4.90;;;1.20;;
29728;SDS011;20055;51.498;11.960;2023-07-20T14:06:32;1.65;;;1.10;;
29728;SDS011;20055;51.498;11.960;2023-07-20T14:08:59;3.13;;;1.15;;
29728;SDS011;20055;51.498;11.960;2023-07-20T14:11:26;5.18;;;1.00;;
29728;SDS011;20055;51.498;11.960;2023-07-20T14:13:54;1.15;;;0.88;;
29728;SDS011;20055;51.498;11.960;2023-07-20T14:16:21;1.88;;;1.05;;
29728;SDS011;20055;51.498;11.960;2023-07-20T14:18:48;1.15;;;0.85;;
29728;SDS011;20055;51.498;11.960;2023-07-20T14:21:18;3.90;;;0.90;;
29728;SDS011;20055;51.498;11.960;2023-07-20T14:23:50;1.25;;;0.80;;
29728;SDS011;20055;51.498;11.960;2023-07-20T14:26:17;1.63;;;0.70;;
29728;SDS011;20055;51.498;11.960;2023-07-20T14:28:44;1.30;;;0.90;;
29728;SDS011;20055;51.498;11.960;2023-07-20T14:31:10;1.65;;;0.70;;
29728;SDS011;20055;51.498;11.960;2023-07-20T14:33:37;4.97;;;0.80;;
29728;SDS011;20055;51.498;11.960;2023-07-20T14:36:03;1.33;;;1.00;;
29728;SDS011;20055;51.498;11.960;2023-07-20T14:38:33;2.00;;;0.80;;
29728;SDS011;20055;51.498;11.960;2023-07-20T14:41:00;2.50;;;0.95;;
29728;SDS011;20055;51.498;11.960;2023-07-20T14:43:26;2.47;;;0.70;;
29728;SDS011;20055;51.498;11.960;2023-07-20T14:45:53;1.58;;;0.85;;
29728;SDS011;20055;51.498;11.960;2023-07-20T14:48:20;1.33;;;0.90;;
29728;SDS011;20055;51.498;11.960;2023-07-20T14:50:46;1.13;;;0.85;;
29728;SDS011;20055;51.498;11.960;2023-07-20T14:53:14;2.42;;;0.90;;
29728;SDS011;20055;51.498;11.960;2023-07-20T14:55:41;1.83;;;0.68;;
29728;SDS011;20055;51.498;11.960;2023-07-20T14:58:08;0.82;;;0.70;;
29728;SDS011;20055;51.498;11.960;2023-07-20T15:00:34;1.13;;;0.70;;
29728;SDS011;20055;51.498;11.960;2023-07-20T15:03:01;2.00;;;1.10;;
29728;SDS011;20055;51.498;11.960;2023-07-20T15:05:28;1.88;;;0.73;;
29728;SDS011;20055;51.498;11.960;2023-07-20T15:07:55;0.93;;;0.80;;
29728;SDS011;20055;51.498;11.960;2023-07-20T15:10:21;1.73;;;0.65;;
29728;SDS011;20055;51.498;11.960;2023-07-20T15:12:47;1.15;;;0.77;;
29728;SDS011;20055;51.498;11.960;2023-07-20T15:15:14;1.95;;;0.88;;
29728;SDS011;20055;51.498;11.960;2023-07-20T15:17:42;1.77;;;0.63;;
29728;SDS011;20055;51.498;11.960;2023-07-20T15:20:10;0.50;;;0.50;;